sensor_id;sensor_type;location;lat;lon;timestamp;pressure;altitude;pressure_sealevel;temperature;humidity
79006;BME280;69202;45.498;-73.582;2024-01-30T00:00:12;101344.28;;;18.98;25.69
79006;BME280;69202;45.498;-73.582;2024-01-30T00:02:38;101346.91;;;18.93;25.58
79006;BME280;69202;45.498;-73.582;2024-01-30T00:05:04;101345.25;;;18.92;25.69
79006;BME280;69202;45.498;-73.582;2024-01-30T00:07:30;101343.31;;;18.92;25.71
79006;BME280;69202;45.498;-73.582;2024-01-30T00:09:55;101344.41;;;18.91;25.68
79006;BME280;69202;45.498;-73.582;2024-01-30T00:12:21;101342.41;;;18.87;25.86
79006;BME280;69202;45.498;-73.582;2024-01-30T00:14:47;101358.34;;;18.90;25.63
79006;BME280;69202;45.498;-73.582;2024-01-30T00:17:14;101358.09;;;18.91;25.86
79006;BME280;69202;45.498;-73.582;2024-01-30T00:19:40;101355.47;;;18.85;25.79
79006;BME280;69202;45.498;-73.582;2024-01-30T00:22:06;101357.88;;;18.93;25.58
79006;BME280;69202;45.498;-73.582;2024-01-30T00:24:33;101358.09;;;18.91;25.68
79006;BME280;69202;45.498;-73.582;2024-01-30T00:26:58;101368.56;;;18.94;25.63
79006;BME280;69202;45.498;-73.582;2024-01-30T00:29:24;101376.56;;;18.96;25.53
79006;BME280;69202;45.498;-73.582;2024-01-30T00:31:55;101377.19;;;18.98;25.56
79006;BME280;69202;45.498;-73.582;2024-01-30T00:34:20;101378.59;;;19.00;25.62
79006;BME280;69202;45.498;-73.582;2024-01-30T00:36:47;101386.34;;;19.03;25.57
79006;BME280;69202;45.498;-73.582;2024-01-30T00:39:13;101394.56;;;19.03;25.46
79006;BME280;69202;45.498;-73.582;2024-01-30T00:41:41;101388.84;;;19.05;25.52
79006;BME280;69202;45.498;-73.582;2024-01-30T00:44:07;101391.94;;;19.09;25.45
79006;BME280;69202;45.498;-73.582;2024-01-30T00:46:33;101385.38;;;19.10;25.49
79006;BME280;69202;45.498;-73.582;2024-01-30T00:48:59;101384.56;;;19.09;25.48
79006;BME280;69202;45.498;-73.582;2024-01-30T00:51:25;101394.53;;;19.15;25.36
79006;BME280;69202;45.498;-73.582;2024-01-30T00:53:51;101389.66;;;19.17;25.40
79006;BME280;69202;45.498;-73.582;2024-01-30T00:56:18;101398.50;;;19.19;25.43
79006;BME280;69202;45.498;-73.582;2024-01-30T00:58:44;101394.69;;;19.20;25.20
79006;BME280;69202;45.498;-73.582;2024-01-30T01:01:10;101394.44;;;19.22;25.31
79006;BME280;69202;45.498;-73.582;2024-01-30T01:03:36;101393.34;;;19.23;25.28
79006;BME280;69202;45.498;-73.582;2024-01-30T01:06:02;101403.00;;;19.25;25.44
79006;BME280;69202;45.498;-73.582;2024-01-30T01:08:28;101397.28;;;19.27;25.38
79006;BME280;69202;45.498;-73.582;2024-01-30T01:10:54;101401.72;;;19.28;25.36
79006;BME280;69202;45.498;-73.582;2024-01-30T01:13:20;101412.19;;;19.31;25.39
79006;BME280;69202;45.498;-73.582;2024-01-30T01:15:46;101410.28;;;19.31;25.27
79006;BME280;69202;45.498;-73.582;2024-01-30T01:18:11;101412.78;;;19.33;25.43
79006;BME280;69202;45.498;-73.582;2024-01-30T01:20:37;101405.38;;;19.33;25.60
79006;BME280;69202;45.498;-73.582;2024-01-30T01:23:03;101410.38;;;19.37;25.63
79006;BME280;69202;45.498;-73.582;2024-01-30T01:25:29;101420.75;;;19.35;25.90
79006;BME280;69202;45.498;-73.582;2024-01-30T01:27:55;101420.88;;;19.40;25.88
79006;BME280;69202;45.498;-73.582;2024-01-30T01:30:21;101417.31;;;19.39;26.01
79006;BME280;69202;45.498;-73.582;2024-01-30T01:32:50;101420.06;;;19.39;26.12
79006;BME280;69202;45.498;-73.582;2024-01-30T01:35:23;101404.47;;;19.28;26.56
79006;BME280;69202;45.498;-73.582;2024-01-30T01:37:53;101411.44;;;19.36;26.68
79006;BME280;69202;45.498;-73.582;2024-01-30T01:40:24;101418.16;;;19.40;26.64
79006;BME280;69202;45.498;-73.582;2024-01-30T01:42:51;101416.47;;;19.39;26.75
79006;BME280;69202;45.498;-73.582;2024-01-30T01:45:18;101418.34;;;19.38;26.81
79006;BME280;69202;45.498;-73.582;2024-01-30T01:47:47;101415.63;;;19.38;26.61
79006;BME280;69202;45.498;-73.582;2024-01-30T01:50:14;101402.53;;;19.28;26.40
79006;BME280;69202;45.498;-73.582;2024-01-30T01:52:45;101405.13;;;19.35;26.34
79006;BME280;69202;45.498;-73.582;2024-01-30T01:55:13;101412.78;;;19.33;26.43
79006;BME280;69202;45.498;-73.582;2024-01-30T01:57:41;101418.25;;;19.33;26.48
79006;BME280;69202;45.498;-73.582;2024-01-30T02:00:08;101403.00;;;19.25;26.51
79006;BME280;69202;45.498;-73.582;2024-01-30T02:02:36;101414.09;;;19.30;26.31
79006;BME280;69202;45.498;-73.582;2024-01-30T02:05:02;101407.66;;;19.25;26.27
79006;BME280;69202;45.498;-73.582;2024-01-30T02:07:29;101399.31;;;19.20;26.61
79006;BME280;69202;45.498;-73.582;2024-01-30T02:09:55;101410.88;;;19.22;26.17
79006;BME280;69202;45.498;-73.582;2024-01-30T02:12:21;101413.88;;;19.20;26.24
79006;BME280;69202;45.498;-73.582;2024-01-30T02:14:48;101419.81;;;19.17;26.21
79006;BME280;69202;45.498;-73.582;2024-01-30T02:17:15;101424.72;;;19.15;26.23
79006;BME280;69202;45.498;-73.582;2024-01-30T02:19:41;101425.19;;;19.12;26.37
79006;BME280;69202;45.498;-73.582;2024-01-30T02:22:07;101431.16;;;19.09;26.29
79006;BME280;69202;45.498;-73.582;2024-01-30T02:24:33;101428.88;;;19.06;26.17
79006;BME280;69202;45.498;-73.582;2024-01-30T02:26:59;101424.72;;;19.03;26.32
79006;BME280;69202;45.498;-73.582;2024-01-30T02:29:25;101427.94;;;19.00;26.25
79006;BME280;69202;45.498;-73.582;2024-01-30T02:31:51;101437.22;;;18.99;26.45
79006;BME280;69202;45.498;-73.582;2024-01-30T02:34:18;101417.91;;;18.83;26.37
79006;BME280;69202;45.498;-73.582;2024-01-30T02:36:45;101441.50;;;18.95;26.41
79006;BME280;69202;45.498;-73.582;2024-01-30T02:39:11;101445.56;;;18.93;25.95
79006;BME280;69202;45.498;-73.582;2024-01-30T02:41:37;101449.63;;;18.90;26.27
79006;BME280;69202;45.498;-73.582;2024-01-30T02:44:03;101448.19;;;18.88;26.39
79006;BME280;69202;45.498;-73.582;2024-01-30T02:46:29;101434.34;;;18.83;26.36
79006;BME280;69202;45.498;-73.582;2024-01-30T02:48:55;101443.63;;;18.82;26.16
79006;BME280;69202;45.498;-73.582;2024-01-30T02:51:21;101449.00;;;18.77;26.31
79006;BME280;69202;45.498;-73.582;2024-01-30T02:53:47;101449.09;;;18.70;26.23
79006;BME280;69202;45.498;-73.582;2024-01-30T02:56:13;101452.69;;;18.70;26.29
79006;BME280;69202;45.498;-73.582;2024-01-30T02:58:39;101455.66;;;18.69;26.13
79006;BME280;69202;45.498;-73.582;2024-01-30T03:01:06;101449.81;;;18.65;26.42
79006;BME280;69202;45.498;-73.582;2024-01-30T03:03:32;101450.00;;;18.64;26.46
79006;BME280;69202;45.498;-73.582;2024-01-30T03:06:00;101433.66;;;18.45;26.57
79006;BME280;69202;45.498;-73.582;2024-01-30T03:08:27;101460.25;;;18.57;26.52
79006;BME280;69202;45.498;-73.582;2024-01-30T03:10:53;101457.75;;;18.55;26.52
79006;BME280;69202;45.498;-73.582;2024-01-30T03:13:19;101462.59;;;18.53;26.45
79006;BME280;69202;45.498;-73.582;2024-01-30T03:15:45;101465.56;;;18.52;26.44
79006;BME280;69202;45.498;-73.582;2024-01-30T03:18:11;101467.47;;;18.51;26.69
79006;BME280;69202;45.498;-73.582;2024-01-30T03:20:37;101477.84;;;18.49;26.57
79006;BME280;69202;45.498;-73.582;2024-01-30T03:23:03;101469.38;;;18.51;26.59
79006;BME280;69202;45.498;-73.582;2024-01-30T03:25:29;101463.06;;;18.50;26.67
79006;BME280;69202;45.498;-73.582;2024-01-30T03:27:55;101472.72;;;18.53;26.76
79006;BME280;69202;45.498;-73.582;2024-01-30T03:30:21;101474.88;;;18.51;26.63
79006;BME280;69202;45.498;-73.582;2024-01-30T03:32:47;101467.47;;;18.51;26.68
79006;BME280;69202;45.498;-73.582;2024-01-30T03:35:13;101481.53;;;18.55;26.61
79006;BME280;69202;45.498;-73.582;2024-01-30T03:37:38;101467.97;;;18.48;26.69
79006;BME280;69202;45.498;-73.582;2024-01-30T03:40:05;101485.72;;;18.57;26.55
79006;BME280;69202;45.498;-73.582;2024-01-30T03:42:31;101474.53;;;18.59;26.66
79006;BME280;69202;45.498;-73.582;2024-01-30T03:44:57;101478.69;;;18.61;26.48
79006;BME280;69202;45.498;-73.582;2024-01-30T03:47:22;101481.00;;;18.64;26.55
79006;BME280;69202;45.498;-73.582;2024-01-30T03:49:48;101466.91;;;18.61;26.53
79006;BME280;69202;45.498;-73.582;2024-01-30T03:52:14;101459.72;;;18.66;26.58
79006;BME280;69202;45.498;-73.582;2024-01-30T03:54:40;101467.44;;;18.69;26.64
79006;BME280;69202;45.498;-73.582;2024-01-30T03:57:06;101462.22;;;18.68;26.83
79006;BME280;69202;45.498;-73.582;2024-01-30T03:59:32;101439.53;;;18.61;26.76
79006;BME280;69202;45.498;-73.582;2024-01-30T04:01:58;101469.03;;;18.77;26.79
79006;BME280;69202;45.498;-73.582;2024-01-30T04:04:24;101472.13;;;18.81;26.68
79006;BME280;69202;45.498;-73.582;2024-01-30T04:06:50;101466.16;;;18.84;26.59
79006;BME280;69202;45.498;-73.582;2024-01-30T04:09:16;101467.47;;;18.81;26.61
79006;BME280;69202;45.498;-73.582;2024-01-30T04:11:42;101472.03;;;18.87;26.59
79006;BME280;69202;45.498;-73.582;2024-01-30T04:14:08;101449.84;;;18.77;26.44
79006;BME280;69202;45.498;-73.582;2024-01-30T04:16:34;101482.84;;;18.94;26.73
79006;BME280;69202;45.498;-73.582;2024-01-30T04:19:01;101482.59;;;18.95;26.36
79006;BME280;69202;45.498;-73.582;2024-01-30T04:21:27;101489.75;;;18.96;26.31
79006;BME280;69202;45.498;-73.582;2024-01-30T04:23:53;101488.00;;;19.02;26.34
79006;BME280;69202;45.498;-73.582;2024-01-30T04:26:19;101483.22;;;18.97;26.40
79006;BME280;69202;45.498;-73.582;2024-01-30T04:28:45;101503.97;;;19.05;26.14
79006;BME280;69202;45.498;-73.582;2024-01-30T04:31:11;101504.59;;;19.07;26.32
79006;BME280;69202;45.498;-73.582;2024-01-30T04:33:37;101481.78;;;18.95;26.12
79006;BME280;69202;45.498;-73.582;2024-01-30T04:36:03;101508.75;;;19.10;25.75
79006;BME280;69202;45.498;-73.582;2024-01-30T04:38:31;101501.84;;;19.07;25.98
79006;BME280;69202;45.498;-73.582;2024-01-30T04:40:57;101484.28;;;18.96;25.78
79006;BME280;69202;45.498;-73.582;2024-01-30T04:43:22;101505.41;;;19.08;25.93
79006;BME280;69202;45.498;-73.582;2024-01-30T04:45:49;101509.81;;;19.09;25.94
79006;BME280;69202;45.498;-73.582;2024-01-30T04:48:15;101510.53;;;19.16;25.79
79006;BME280;69202;45.498;-73.582;2024-01-30T04:50:42;101510.28;;;19.17;25.75
79006;BME280;69202;45.498;-73.582;2024-01-30T04:53:07;101512.19;;;19.17;25.79
79006;BME280;69202;45.498;-73.582;2024-01-30T04:55:35;101497.31;;;19.13;25.89
79006;BME280;69202;45.498;-73.582;2024-01-30T04:58:02;101513.03;;;19.17;25.82
79006;BME280;69202;45.498;-73.582;2024-01-30T05:00:27;101519.38;;;19.18;26.00
79006;BME280;69202;45.498;-73.582;2024-01-30T05:02:55;101516.50;;;19.13;26.29
79006;BME280;69202;45.498;-73.582;2024-01-30T05:05:21;101531.63;;;19.15;26.38
79006;BME280;69202;45.498;-73.582;2024-01-30T05:07:47;101514.81;;;19.00;26.39
79006;BME280;69202;45.498;-73.582;2024-01-30T05:10:13;101551.88;;;19.14;26.48
79006;BME280;69202;45.498;-73.582;2024-01-30T05:12:39;101548.56;;;19.12;26.55
79006;BME280;69202;45.498;-73.582;2024-01-30T05:15:06;101552.59;;;19.10;26.40
79006;BME280;69202;45.498;-73.582;2024-01-30T05:17:32;101537.53;;;18.89;35.93
79006;BME280;69202;45.498;-73.582;2024-01-30T05:19:58;101567.81;;;18.94;40.52
79006;BME280;69202;45.498;-73.582;2024-01-30T05:22:24;101571.22;;;18.78;40.21
79006;BME280;69202;45.498;-73.582;2024-01-30T05:24:50;101570.13;;;18.67;41.10
79006;BME280;69202;45.498;-73.582;2024-01-30T05:27:16;101574.66;;;18.55;41.41
79006;BME280;69202;45.498;-73.582;2024-01-30T05:29:42;101572.25;;;18.46;42.58
79006;BME280;69202;45.498;-73.582;2024-01-30T05:32:08;101572.56;;;18.38;42.20
79006;BME280;69202;45.498;-73.582;2024-01-30T05:34:35;101576.84;;;18.34;42.14
79006;BME280;69202;45.498;-73.582;2024-01-30T05:37:01;101583.22;;;18.28;42.28
79006;BME280;69202;45.498;-73.582;2024-01-30T05:39:27;101575.09;;;18.22;43.20
79006;BME280;69202;45.498;-73.582;2024-01-30T05:41:53;101570.53;;;18.15;43.40
79006;BME280;69202;45.498;-73.582;2024-01-30T05:44:18;101580.50;;;18.10;43.12
79006;BME280;69202;45.498;-73.582;2024-01-30T05:46:44;101577.63;;;18.05;43.74
79006;BME280;69202;45.498;-73.582;2024-01-30T05:49:10;101575.94;;;18.04;43.30
79006;BME280;69202;45.498;-73.582;2024-01-30T05:51:36;101584.53;;;18.07;43.62
79006;BME280;69202;45.498;-73.582;2024-01-30T05:54:02;101552.13;;;17.86;42.74
79006;BME280;69202;45.498;-73.582;2024-01-30T05:56:29;101583.31;;;18.03;42.90
79006;BME280;69202;45.498;-73.582;2024-01-30T05:58:55;101593.41;;;18.03;42.87
79006;BME280;69202;45.498;-73.582;2024-01-30T06:01:21;101592.38;;;18.04;43.50
79006;BME280;69202;45.498;-73.582;2024-01-30T06:03:46;101587.72;;;18.04;43.39
79006;BME280;69202;45.498;-73.582;2024-01-30T06:06:12;101566.19;;;17.89;43.04
79006;BME280;69202;45.498;-73.582;2024-01-30T06:08:38;101595.94;;;18.04;44.08
79006;BME280;69202;45.498;-73.582;2024-01-30T06:11:04;101592.38;;;18.04;42.87
79006;BME280;69202;45.498;-73.582;2024-01-30T06:13:30;101584.34;;;18.02;42.79
79006;BME280;69202;45.498;-73.582;2024-01-30T06:15:57;101590.47;;;18.04;42.54
79006;BME280;69202;45.498;-73.582;2024-01-30T06:18:23;101569.75;;;17.90;42.88
79006;BME280;69202;45.498;-73.582;2024-01-30T06:20:49;101594.03;;;18.05;42.16
79006;BME280;69202;45.498;-73.582;2024-01-30T06:23:15;101591.44;;;18.10;42.00
79006;BME280;69202;45.498;-73.582;2024-01-30T06:25:41;101568.03;;;17.96;42.64
79006;BME280;69202;45.498;-73.582;2024-01-30T06:28:07;101606.34;;;18.14;41.67
79006;BME280;69202;45.498;-73.582;2024-01-30T06:30:33;101611.59;;;18.15;41.85
79006;BME280;69202;45.498;-73.582;2024-01-30T06:32:59;101604.81;;;18.18;40.47
79006;BME280;69202;45.498;-73.582;2024-01-30T06:35:25;101610.91;;;18.20;41.17
79006;BME280;69202;45.498;-73.582;2024-01-30T06:37:50;101619.13;;;18.20;40.57
79006;BME280;69202;45.498;-73.582;2024-01-30T06:40:16;101612.56;;;18.21;40.49
79006;BME280;69202;45.498;-73.582;2024-01-30T06:42:42;101615.91;;;18.23;40.98
79006;BME280;69202;45.498;-73.582;2024-01-30T06:45:08;101615.72;;;18.25;41.06
79006;BME280;69202;45.498;-73.582;2024-01-30T06:47:34;101611.50;;;18.22;40.92
79006;BME280;69202;45.498;-73.582;2024-01-30T06:50:01;101610.22;;;18.25;39.56
79006;BME280;69202;45.498;-73.582;2024-01-30T06:52:27;101601.84;;;18.20;39.22
79006;BME280;69202;45.498;-73.582;2024-01-30T06:54:53;101612.97;;;18.25;39.31
79006;BME280;69202;45.498;-73.582;2024-01-30T06:57:20;101625.81;;;18.24;40.41
79006;BME280;69202;45.498;-73.582;2024-01-30T06:59:46;101630.22;;;18.25;41.11
79006;BME280;69202;45.498;-73.582;2024-01-30T07:02:12;101624.75;;;18.25;39.95
79006;BME280;69202;45.498;-73.582;2024-01-30T07:04:38;101622.38;;;18.29;39.18
79006;BME280;69202;45.498;-73.582;2024-01-30T07:07:05;101623.94;;;18.25;38.27
79006;BME280;69202;45.498;-73.582;2024-01-30T07:09:31;101632.28;;;18.30;38.51
79006;BME280;69202;45.498;-73.582;2024-01-30T07:11:57;101639.41;;;18.31;38.85
79006;BME280;69202;45.498;-73.582;2024-01-30T07:14:25;101638.59;;;18.30;38.56
79006;BME280;69202;45.498;-73.582;2024-01-30T07:16:51;101644.91;;;18.31;38.67
79006;BME280;69202;45.498;-73.582;2024-01-30T07:19:17;101638.34;;;18.32;38.24
79006;BME280;69202;45.498;-73.582;2024-01-30T07:21:43;101643.00;;;18.31;37.77
79006;BME280;69202;45.498;-73.582;2024-01-30T07:24:09;101628.34;;;18.26;37.91
79006;BME280;69202;45.498;-73.582;2024-01-30T07:26:35;101637.28;;;18.33;37.98
79006;BME280;69202;45.498;-73.582;2024-01-30T07:29:01;101649.31;;;18.32;37.01
79006;BME280;69202;45.498;-73.582;2024-01-30T07:31:27;101642.16;;;18.31;36.95
79006;BME280;69202;45.498;-73.582;2024-01-30T07:33:53;101647.50;;;18.26;36.11
79006;BME280;69202;45.498;-73.582;2024-01-30T07:36:20;101648.09;;;18.28;36.50
79006;BME280;69202;45.498;-73.582;2024-01-30T07:38:46;101639.28;;;18.26;37.57
79006;BME280;69202;45.498;-73.582;2024-01-30T07:41:12;101634.47;;;18.21;36.63
79006;BME280;69202;45.498;-73.582;2024-01-30T07:43:40;101652.28;;;18.30;36.67
79006;BME280;69202;45.498;-73.582;2024-01-30T07:46:06;101647.25;;;18.27;36.03
79006;BME280;69202;45.498;-73.582;2024-01-30T07:48:33;101657.47;;;18.38;37.08
79006;BME280;69202;45.498;-73.582;2024-01-30T07:50:59;101667.72;;;18.43;36.52
79006;BME280;69202;45.498;-73.582;2024-01-30T07:53:25;101664.97;;;18.43;35.74
79006;BME280;69202;45.498;-73.582;2024-01-30T07:55:52;101647.88;;;18.29;35.90
79006;BME280;69202;45.498;-73.582;2024-01-30T07:58:18;101679.72;;;18.42;35.71
79006;BME280;69202;45.498;-73.582;2024-01-30T08:00:45;101673.06;;;18.38;35.73
79006;BME280;69202;45.498;-73.582;2024-01-30T08:03:10;101678.06;;;18.41;34.91
79006;BME280;69202;45.498;-73.582;2024-01-30T08:05:36;101676.16;;;18.41;33.87
79006;BME280;69202;45.498;-73.582;2024-01-30T08:08:03;101675.94;;;18.43;34.65
79006;BME280;69202;45.498;-73.582;2024-01-30T08:10:29;101687.56;;;18.38;34.29
79006;BME280;69202;45.498;-73.582;2024-01-30T08:12:55;101682.34;;;18.37;34.75
79006;BME280;69202;45.498;-73.582;2024-01-30T08:15:21;101689.09;;;18.34;34.37
79006;BME280;69202;45.498;-73.582;2024-01-30T08:17:47;101646.78;;;18.12;35.36
79006;BME280;69202;45.498;-73.582;2024-01-30T08:20:12;101681.72;;;18.35;34.33
79006;BME280;69202;45.498;-73.582;2024-01-30T08:22:39;101685.69;;;18.39;33.94
79006;BME280;69202;45.498;-73.582;2024-01-30T08:25:06;101684.00;;;18.38;33.32
79006;BME280;69202;45.498;-73.582;2024-01-30T08:27:33;101683.16;;;18.37;33.79
79006;BME280;69202;45.498;-73.582;2024-01-30T08:30:01;101692.00;;;18.39;33.67
79006;BME280;69202;45.498;-73.582;2024-01-30T08:32:27;101678.91;;;18.41;34.04
79006;BME280;69202;45.498;-73.582;2024-01-30T08:34:53;101681.50;;;18.36;33.68
79006;BME280;69202;45.498;-73.582;2024-01-30T08:37:19;101676.75;;;18.43;33.39
79006;BME280;69202;45.498;-73.582;2024-01-30T08:39:45;101697.00;;;18.42;32.92
79006;BME280;69202;45.498;-73.582;2024-01-30T08:42:10;101699.97;;;18.41;32.60
79006;BME280;69202;45.498;-73.582;2024-01-30T08:44:36;101696.25;;;18.35;32.05
79006;BME280;69202;45.498;-73.582;2024-01-30T08:47:04;101692.88;;;18.33;32.48
79006;BME280;69202;45.498;-73.582;2024-01-30T08:49:30;101694.66;;;18.28;32.68
79006;BME280;69202;45.498;-73.582;2024-01-30T08:51:56;101692.75;;;18.28;32.34
79006;BME280;69202;45.498;-73.582;2024-01-30T08:54:23;101692.50;;;18.30;32.51
79006;BME280;69202;45.498;-73.582;2024-01-30T08:56:49;101700.72;;;18.30;32.51
79006;BME280;69202;45.498;-73.582;2024-01-30T08:59:15;101696.31;;;18.29;31.86
79006;BME280;69202;45.498;-73.582;2024-01-30T09:01:41;101709.63;;;18.25;32.11
79006;BME280;69202;45.498;-73.582;2024-01-30T09:04:07;101698.28;;;18.22;31.68
79006;BME280;69202;45.498;-73.582;2024-01-30T09:06:32;101702.91;;;18.21;31.55
79006;BME280;69202;45.498;-73.582;2024-01-30T09:08:58;101704.22;;;18.18;31.56
79006;BME280;69202;45.498;-73.582;2024-01-30T09:11:24;101707.56;;;18.21;31.26
79006;BME280;69202;45.498;-73.582;2024-01-30T09:13:52;101711.13;;;18.21;30.78
79006;BME280;69202;45.498;-73.582;2024-01-30T09:16:18;101709.00;;;18.23;30.59
79006;BME280;69202;45.498;-73.582;2024-01-30T09:18:44;101698.34;;;18.15;30.35
79006;BME280;69202;45.498;-73.582;2024-01-30T09:21:10;101716.00;;;18.19;30.52
79006;BME280;69202;45.498;-73.582;2024-01-30T09:23:36;101720.25;;;18.15;30.27
79006;BME280;69202;45.498;-73.582;2024-01-30T09:26:02;101714.78;;;18.15;30.78
79006;BME280;69202;45.498;-73.582;2024-01-30T09:28:28;101716.69;;;18.14;30.90
79006;BME280;69202;45.498;-73.582;2024-01-30T09:30:54;101716.69;;;18.14;30.22
79006;BME280;69202;45.498;-73.582;2024-01-30T09:33:20;101709.53;;;18.13;30.26
79006;BME280;69202;45.498;-73.582;2024-01-30T09:35:46;101713.72;;;18.16;30.41
79006;BME280;69202;45.498;-73.582;2024-01-30T09:38:12;101709.34;;;18.08;30.22
79006;BME280;69202;45.498;-73.582;2024-01-30T09:40:38;101731.22;;;18.15;29.85
79006;BME280;69202;45.498;-73.582;2024-01-30T09:43:03;101728.84;;;18.18;29.54
79006;BME280;69202;45.498;-73.582;2024-01-30T09:45:30;101728.09;;;18.30;29.07
79006;BME280;69202;45.498;-73.582;2024-01-30T09:47:59;101735.47;;;18.29;29.29
79006;BME280;69202;45.498;-73.582;2024-01-30T09:50:25;101737.84;;;18.26;29.42
79006;BME280;69202;45.498;-73.582;2024-01-30T09:52:55;101735.47;;;18.29;29.56
79006;BME280;69202;45.498;-73.582;2024-01-30T09:55:22;101733.81;;;18.28;29.52
79006;BME280;69202;45.498;-73.582;2024-01-30T09:57:48;101731.44;;;18.32;29.44
79006;BME280;69202;45.498;-73.582;2024-01-30T10:00:14;101704.59;;;18.22;29.28
79006;BME280;69202;45.498;-73.582;2024-01-30T10:02:40;101725.91;;;18.38;29.93
79006;BME280;69202;45.498;-73.582;2024-01-30T10:05:08;101730.50;;;18.44;29.00
79006;BME280;69202;45.498;-73.582;2024-01-30T10:07:34;101732.22;;;18.39;28.96
79006;BME280;69202;45.498;-73.582;2024-01-30T10:10:00;101726.38;;;18.35;29.03
79006;BME280;69202;45.498;-73.582;2024-01-30T10:12:26;101727.44;;;18.34;29.27
79006;BME280;69202;45.498;-73.582;2024-01-30T10:14:52;101653.69;;;17.96;29.12
79006;BME280;69202;45.498;-73.582;2024-01-30T10:17:19;101723.97;;;18.45;28.96
79006;BME280;69202;45.498;-73.582;2024-01-30T10:19:46;101726.47;;;18.47;28.87
79006;BME280;69202;45.498;-73.582;2024-01-30T10:22:12;101725.22;;;18.43;28.97
79006;BME280;69202;45.498;-73.582;2024-01-30T10:24:38;101717.94;;;18.37;28.97
79006;BME280;69202;45.498;-73.582;2024-01-30T10:27:05;101725.84;;;18.45;28.37
79006;BME280;69202;45.498;-73.582;2024-01-30T10:29:32;101728.59;;;18.45;27.75
79006;BME280;69202;45.498;-73.582;2024-01-30T10:32:02;101737.41;;;18.47;28.07
79006;BME280;69202;45.498;-73.582;2024-01-30T10:34:28;101734.44;;;18.49;27.97
79006;BME280;69202;45.498;-73.582;2024-01-30T10:39:29;101748.81;;;18.44;28.06
79006;BME280;69202;45.498;-73.582;2024-01-30T10:42:03;101750.50;;;18.45;28.22
79006;BME280;69202;45.498;-73.582;2024-01-30T10:44:36;101750.50;;;18.45;28.08
79006;BME280;69202;45.498;-73.582;2024-01-30T10:47:06;101754.69;;;18.48;27.71
79006;BME280;69202;45.498;-73.582;2024-01-30T10:49:34;101737.84;;;18.44;27.59
79006;BME280;69202;45.498;-73.582;2024-01-30T10:52:01;101750.28;;;18.46;26.98
79006;BME280;69202;45.498;-73.582;2024-01-30T10:54:29;101752.56;;;18.50;26.87
79006;BME280;69202;45.498;-73.582;2024-01-30T10:56:57;101758.41;;;18.53;27.30
79006;BME280;69202;45.498;-73.582;2024-01-30T10:59:27;101753.44;;;18.43;27.55
79006;BME280;69202;45.498;-73.582;2024-01-30T11:01:54;101762.72;;;18.42;27.28
79006;BME280;69202;45.498;-73.582;2024-01-30T11:04:20;101752.28;;;18.33;27.23
79006;BME280;69202;45.498;-73.582;2024-01-30T11:06:49;101761.34;;;18.33;27.40
79006;BME280;69202;45.498;-73.582;2024-01-30T11:09:17;101770.38;;;18.34;27.58
79006;BME280;69202;45.498;-73.582;2024-01-30T11:12:11;101770.38;;;18.34;27.33
79006;BME280;69202;45.498;-73.582;2024-01-30T11:14:38;101772.53;;;18.32;27.63
79006;BME280;69202;45.498;-73.582;2024-01-30T11:17:05;101760.50;;;18.33;27.46
79006;BME280;69202;45.498;-73.582;2024-01-30T11:19:32;101748.28;;;18.35;27.14
79006;BME280;69202;45.498;-73.582;2024-01-30T11:21:59;101771.72;;;18.50;27.19
79006;BME280;69202;45.498;-73.582;2024-01-30T11:24:27;101784.13;;;18.52;27.26
79006;BME280;69202;45.498;-73.582;2024-01-30T11:26:56;101779.09;;;18.49;27.14
79006;BME280;69202;45.498;-73.582;2024-01-30T11:29:29;101786.72;;;18.47;27.19
79006;BME280;69202;45.498;-73.582;2024-01-30T11:31:57;101760.13;;;18.29;27.08
79006;BME280;69202;45.498;-73.582;2024-01-30T11:34:24;101792.84;;;18.42;26.26
79006;BME280;69202;45.498;-73.582;2024-01-30T11:36:58;101774.03;;;18.28;27.02
79006;BME280;69202;45.498;-73.582;2024-01-30T11:39:29;101800.22;;;18.42;27.07
79006;BME280;69202;45.498;-73.582;2024-01-30T11:41:56;101800.84;;;18.44;26.72
79006;BME280;69202;45.498;-73.582;2024-01-30T11:44:23;101801.00;;;18.49;26.37
79006;BME280;69202;45.498;-73.582;2024-01-30T11:46:50;101801.38;;;18.53;26.25
79006;BME280;69202;45.498;-73.582;2024-01-30T11:49:16;101806.88;;;18.53;26.29
79006;BME280;69202;45.498;-73.582;2024-01-30T11:51:48;101806.25;;;18.51;26.07
79006;BME280;69202;45.498;-73.582;2024-01-30T11:54:15;101810.69;;;18.52;26.31
79006;BME280;69202;45.498;-73.582;2024-01-30T11:56:42;101796.59;;;18.48;25.72
79006;BME280;69202;45.498;-73.582;2024-01-30T11:59:08;101813.88;;;18.49;26.15
79006;BME280;69202;45.498;-73.582;2024-01-30T12:01:34;101812.66;;;18.44;25.93
79006;BME280;69202;45.498;-73.582;2024-01-30T12:04:00;101803.19;;;18.40;25.23
79006;BME280;69202;45.498;-73.582;2024-01-30T12:06:27;101810.94;;;18.43;25.82
79006;BME280;69202;45.498;-73.582;2024-01-30T12:09:00;101817.06;;;18.45;25.47
79006;BME280;69202;45.498;-73.582;2024-01-30T12:11:29;101804.13;;;18.34;25.12
79006;BME280;69202;45.498;-73.582;2024-01-30T12:13:55;101820.00;;;18.44;25.42
79006;BME280;69202;45.498;-73.582;2024-01-30T12:16:22;101828.22;;;18.44;25.35
79006;BME280;69202;45.498;-73.582;2024-01-30T12:18:48;101824.28;;;18.40;25.71
79006;BME280;69202;45.498;-73.582;2024-01-30T12:21:17;101835.00;;;18.41;25.70
79006;BME280;69202;45.498;-73.582;2024-01-30T12:23:44;101802.47;;;18.27;26.03
79006;BME280;69202;45.498;-73.582;2024-01-30T12:26:11;101836.25;;;18.45;25.43
79006;BME280;69202;45.498;-73.582;2024-01-30T12:28:37;101808.94;;;18.32;25.57